Time;durP1;ratioP1;P1;durP2;ratioP2;P2;SDS_P1;SDS_P2;PMS_P1;PMS_P2;Temp;Humidity;BMP_temperature;BMP_pressure;BME280_temperature;BME280_humidity;BME280_pressure;Samples;Min_cycle;Max_cycle;Signal;HPM_P1;HPM_P2
2022/07/11 00:01:49;;;;;;;3.72;3.42;;;;;;;17.69;57.48;99189.94;5032788;28;20033;-87
2022/07/11 00:04:14;;;;;;;3.72;3.42;;;;;;;17.74;57.41;99197.25;5032832;28;20075;-88
2022/07/11 00:06:40;;;;;;;3.47;3.25;;;;;;;17.59;57.04;99173.69;5033292;28;20025;-88
2022/07/11 00:09:05;;;;;;;4.63;3.20;;;;;;;17.79;57.37;99206.19;5051129;28;20505;-88
2022/07/11 00:11:31;;;;;;;5.53;3.03;;;;;;;17.70;57.61;99202.88;5033062;28;20140;-88
2022/07/11 00:13:57;;;;;;;4.88;4.10;;;;;;;17.66;57.90;99211.31;5033100;28;20137;-88
2022/07/11 00:16:22;;;;;;;3.22;3.03;;;;;;;17.51;58.22;99196.25;5020447;28;20033;-88
2022/07/11 00:18:48;;;;;;;3.67;3.38;;;;;;;17.45;58.48;99197.81;5029880;28;20029;-88
2022/07/11 00:21:13;;;;;;;4.05;3.47;;;;;;;17.46;58.81;99207.91;5023204;28;20052;-88
2022/07/11 00:23:39;;;;;;;7.50;3.50;;;;;;;17.37;58.78;99204.56;5033112;28;20476;-88
2022/07/11 00:26:05;;;;;;;3.88;3.58;;;;;;;17.30;59.30;99196.03;5034647;28;20123;-88
2022/07/11 00:28:30;;;;;;;4.25;3.63;;;;;;;17.21;59.28;99202.00;5036023;28;20487;-88
2022/07/11 00:30:56;;;;;;;11.98;4.65;;;;;;;17.21;59.46;99208.47;5035988;28;20419;-88
2022/07/11 00:33:21;;;;;;;3.50;3.20;;;;;;;17.18;59.51;99203.59;5036469;28;20060;-89
2022/07/11 00:35:47;;;;;;;3.70;3.35;;;;;;;17.10;59.85;99208.34;5036558;28;20552;-88
2022/07/11 00:38:13;;;;;;;5.40;3.70;;;;;;;17.07;59.78;99208.31;5035640;28;20059;-88
2022/07/11 00:40:39;;;;;;;4.93;3.72;;;;;;;17.20;59.57;99218.13;5032642;28;20033;-88
2022/07/11 00:43:05;;;;;;;5.22;3.83;;;;;;;17.24;59.47;99218.97;5049221;28;20112;-89
2022/07/11 00:45:31;;;;;;;4.50;3.22;;;;;;;17.31;59.13;99229.56;5036293;28;20483;-88
2022/07/11 00:47:57;;;;;;;7.70;3.45;;;;;;;17.18;58.72;99203.59;5036572;28;20090;-88
2022/07/11 00:50:23;;;;;;;4.75;3.78;;;;;;;17.21;58.73;99207.66;5036227;28;20485;-88
2022/07/11 00:52:54;;;;;;;4.03;3.67;;;;;;;17.26;58.64;99207.31;5036073;28;20040;-88
2022/07/11 00:55:21;;;;;;;4.93;3.60;;;;;;;17.38;58.76;99226.00;5035595;28;20068;-89
2022/07/11 00:57:47;;;;;;;4.53;3.53;;;;;;;17.27;58.81;99214.56;5034724;28;20035;-88
2022/07/11 01:00:13;;;;;;;5.60;3.80;;;;;;;17.06;59.41;99215.94;5035645;28;20119;-89
2022/07/11 01:02:39;;;;;;;5.28;3.65;;;;;;;16.82;60.22;99209.56;5035835;28;20064;-87
2022/07/11 01:05:05;;;;;;;7.20;3.95;;;;;;;16.76;60.93;99227.25;5036017;28;20029;-88
2022/07/11 01:07:31;;;;;;;4.97;4.57;;;;;;;16.73;61.50;99237.31;5036499;28;20498;-88
2022/07/11 01:09:57;;;;;;;5.00;3.70;;;;;;;16.56;62.58;99241.53;5035479;28;20036;-88
2022/07/11 01:12:23;;;;;;;4.63;3.90;;;;;;;16.10;63.00;99202.91;5035469;28;20045;-88
2022/07/11 01:14:53;;;;;;;4.38;4.07;;;;;;;16.26;63.51;99233.81;5035957;28;20036;-87
2022/07/11 01:17:19;;;;;;;7.57;4.28;;;;;;;16.23;64.23;99245.84;5035842;28;20056;-88
2022/07/11 01:19:45;;;;;;;7.65;4.40;;;;;;;16.06;64.61;99227.44;5035177;28;20043;-88
2022/07/11 01:22:14;;;;;;;5.78;4.68;;;;;;;16.09;63.88;99223.88;5035122;28;20025;-88
2022/07/11 01:24:40;;;;;;;8.40;4.32;;;;;;;16.28;63.85;99240.72;5035589;28;20017;-88
2022/07/11 01:27:07;;;;;;;10.43;3.67;;;;;;;16.29;63.67;99238.72;5053511;28;20431;-88
2022/07/11 01:29:35;;;;;;;4.00;3.70;;;;;;;16.11;64.25;99227.16;5035436;28;20040;-88
2022/07/11 01:32:01;;;;;;;9.15;4.03;;;;;;;16.20;64.10;99235.34;5035042;28;20059;-89
2022/07/11 01:34:26;;;;;;;4.35;3.80;;;;;;;16.18;64.37;99226.44;5026570;28;20483;-88
2022/07/11 01:36:51;;;;;;;4.15;3.83;;;;;;;16.30;63.47;99237.53;5018753;28;20071;-88
2022/07/11 01:39:17;;;;;;;4.55;4.15;;;;;;;16.37;63.35;99228.34;5035438;28;20491;-88
2022/07/11 01:41:42;;;;;;;8.32;3.25;;;;;;;16.36;63.21;99224.69;5034976;28;20029;-88
2022/07/11 01:44:08;;;;;;;6.03;3.50;;;;;;;16.56;62.43;99231.03;5052981;28;20017;-87
2022/07/11 01:46:33;;;;;;;3.58;3.33;;;;;;;16.59;62.48;99229.44;5034969;28;20028;-88
2022/07/11 01:48:59;;;;;;;37.47;4.95;;;;;;;16.51;62.16;99205.97;5033005;28;20032;-87
2022/07/11 01:51:25;;;;;;;6.68;4.03;;;;;;;16.69;62.13;99233.63;5034996;28;20020;-88
2022/07/11 01:53:52;;;;;;;4.28;3.50;;;;;;;16.68;62.05;99215.88;5034564;28;20032;-88
2022/07/11 01:56:17;;;;;;;3.97;3.53;;;;;;;16.77;61.77;99238.16;5034967;28;20060;-87
2022/07/11 01:58:43;;;;;;;6.20;3.47;;;;;;;16.78;62.33;99241.81;5035091;28;20119;-88
2022/07/11 02:01:09;;;;;;;3.75;3.38;;;;;;;16.73;62.15;99239.31;5034727;28;20036;-87
2022/07/11 02:03:34;;;;;;;3.53;3.22;;;;;;;16.80;62.00;99248.69;5032122;28;20066;-88
2022/07/11 02:06:00;;;;;;;3.65;3.35;;;;;;;16.75;61.87;99240.56;5022979;28;20094;-88
2022/07/11 02:08:26;;;;;;;4.35;3.95;;;;;;;16.53;61.75;99212.03;5014948;28;20026;-88
2022/07/11 02:10:52;;;;;;;3.65;3.35;;;;;;;16.89;61.29;99254.03;5052438;28;20028;-88
2022/07/11 02:13:19;;;;;;;10.88;3.80;;;;;;;16.84;61.29;99235.44;5051535;28;20048;-88
2022/07/11 02:15:46;;;;;;;5.10;3.58;;;;;;;16.71;60.81;99217.09;5017825;28;20044;-88
2022/07/11 02:18:12;;;;;;;4.60;3.30;;;;;;;17.02;60.71;99249.00;5014941;28;20048;-88
2022/07/11 02:20:39;;;;;;;3.63;3.30;;;;;;;16.95;60.34;99229.94;5020069;28;20130;-88
2022/07/11 02:23:05;;;;;;;5.07;3.30;;;;;;;17.12;60.10;99250.31;5022131;28;20025;-89
2022/07/11 02:25:31;;;;;;;8.75;3.55;;;;;;;17.04;59.48;99209.09;5014732;28;20068;-87
2022/07/11 02:27:58;;;;;;;3.72;3.10;;;;;;;17.44;58.54;99243.44;5014484;28;20418;-88
2022/07/11 02:30:24;;;;;;;9.48;3.60;;;;;;;17.37;58.95;99266.75;5018584;28;20021;-88
2022/07/11 02:32:51;;;;;;;3.30;3.05;;;;;;;17.07;58.86;99228.06;5041051;28;20098;-88
2022/07/11 02:35:16;;;;;;;8.27;3.75;;;;;;;17.16;59.33;99248.38;5014444;28;20025;-88
2022/07/11 02:37:43;;;;;;;4.25;2.95;;;;;;;17.49;59.12;99274.97;5014302;28;20028;-88
2022/07/11 02:40:09;;;;;;;4.82;3.20;;;;;;;17.26;59.40;99267.47;5014554;28;20479;-89
2022/07/11 02:42:34;;;;;;;3.50;3.20;;;;;;;17.48;59.10;99273.34;5017135;28;20056;-88
2022/07/11 02:45:00;;;;;;;5.75;2.88;;;;;;;17.45;58.46;99259.19;5018669;28;20553;-87
2022/07/11 02:47:25;;;;;;;7.45;3.13;;;;;;;17.26;58.72;99261.81;5024120;28;20052;-88
2022/07/11 02:49:51;;;;;;;4.30;3.00;;;;;;;17.03;59.03;99269.63;5032592;28;20056;-87
2022/07/11 02:52:16;;;;;;;5.35;3.28;;;;;;;16.95;59.34;99286.44;5029631;28;20029;-88
2022/07/11 02:54:42;;;;;;;4.72;3.30;;;;;;;16.97;59.61;99271.94;5014358;28;20091;-88
2022/07/11 02:57:07;;;;;;;9.02;3.85;;;;;;;16.81;60.02;99283.41;5011798;28;20025;-88
2022/07/11 02:59:33;;;;;;;5.25;3.53;;;;;;;16.82;60.53;99293.50;5030639;28;20455;-87
2022/07/11 03:01:59;;;;;;;10.73;4.07;;;;;;;16.79;61.03;99300.72;5033487;28;20389;-88
2022/07/11 03:04:24;;;;;;;6.95;3.80;;;;;;;16.62;60.74;99261.75;5014137;28;20033;-89
2022/07/11 03:06:50;;;;;;;4.18;3.33;;;;;;;16.84;60.10;99296.75;5014333;28;20048;-88
2022/07/11 03:09:16;;;;;;;3.42;3.13;;;;;;;16.87;59.88;99290.34;5014010;28;20033;-89
2022/07/11 03:11:42;;;;;;;12.50;4.22;;;;;;;17.03;59.02;99298.66;5014005;28;20115;-88
2022/07/11 03:14:09;;;;;;;4.38;3.22;;;;;;;17.02;58.17;99294.22;5013824;28;20064;-89
2022/07/11 03:16:34;;;;;;;5.93;2.88;;;;;;;17.18;57.84;99304.50;5027384;28;20087;-88
2022/07/11 03:19:00;;;;;;;8.35;3.53;;;;;;;17.24;57.52;99291.66;5012853;28;20041;-88
2022/07/11 03:21:25;;;;;;;7.07;3.55;;;;;;;17.43;57.31;99310.47;5029103;28;20034;-87
2022/07/11 03:23:51;;;;;;;8.15;2.90;;;;;;;17.48;56.80;99307.28;5013718;28;20029;-88
2022/07/11 03:26:17;;;;;;;4.35;2.95;;;;;;;17.32;56.67;99304.69;5031718;28;20029;-88
2022/07/11 03:28:42;;;;;;;5.10;3.03;;;;;;;17.33;57.16;99311.16;5031702;28;20029;-88
2022/07/11 03:31:08;;;;;;;5.78;2.45;;;;;;;17.13;57.71;99291.50;5013604;28;20025;-88
2022/07/11 03:33:33;;;;;;;3.35;3.05;;;;;;;17.22;57.77;99316.69;5011787;28;20021;-88
2022/07/11 03:35:59;;;;;;;3.58;3.03;;;;;;;16.96;58.32;99282.41;5013226;28;20021;-88
2022/07/11 03:38:25;;;;;;;8.07;3.83;;;;;;;17.07;58.48;99310.00;5013838;28;20033;-88
2022/07/11 03:40:50;;;;;;;3.80;3.08;;;;;;;17.14;58.10;99310.13;5012125;28;20583;-88
2022/07/11 03:43:16;;;;;;;4.45;3.22;;;;;;;17.01;57.58;99283.28;5013501;28;20032;-88
2022/07/11 03:45:42;;;;;;;9.07;3.28;;;;;;;17.54;56.80;99331.19;5014094;28;20057;-88
2022/07/11 03:48:08;;;;;;;2.53;2.33;;;;;;;17.39;55.44;99299.09;5014018;28;20029;-88
2022/07/11 03:50:34;;;;;;;6.78;3.20;;;;;;;17.71;55.90;99330.97;5013794;28;20067;-88
2022/07/11 03:53:01;;;;;;;15.00;3.88;;;;;;;17.79;55.88;99336.31;5013337;28;20098;-89
2022/07/11 03:55:27;;;;;;;4.50;3.08;;;;;;;17.80;55.70;99320.97;5013440;28;20053;-89
2022/07/11 03:57:53;;;;;;;7.82;3.17;;;;;;;17.96;54.64;99342.53;5014110;28;20515;-89
2022/07/11 04:00:19;;;;;;;3.80;2.80;;;;;;;17.89;54.80;99325.50;5033423;28;20095;-89
2022/07/11 04:02:48;;;;;;;6.93;2.72;;;;;;;18.01;54.93;99339.38;5035362;28;20069;-88
2022/07/11 04:05:14;;;;;;;4.65;2.63;;;;;;;18.04;54.62;99349.94;5035195;28;20025;-88
2022/07/11 04:07:40;;;;;;;5.00;2.53;;;;;;;18.07;54.94;99342.69;5017848;28;20037;-88
2022/07/11 04:10:06;;;;;;;2.45;2.25;;;;;;;18.00;54.97;99332.09;5017804;28;20124;-89
2022/07/11 04:12:32;;;;;;;4.85;2.50;;;;;;;18.08;54.74;99350.78;5020324;28;20045;-88
2022/07/11 04:14:57;;;;;;;3.42;2.50;;;;;;;17.97;55.31;99330.03;5034303;28;20140;-89
2022/07/11 04:17:23;;;;;;;7.07;2.67;;;;;;;18.14;54.78;99351.22;5034113;28;20033;-89
2022/07/11 04:19:48;;;;;;;6.13;2.60;;;;;;;18.21;54.39;99361.81;5020269;28;20026;-89
2022/07/11 04:22:14;;;;;;;10.52;2.47;;;;;;;18.03;54.28;99316.34;5032949;28;20056;-89
2022/07/11 04:24:39;;;;;;;5.00;2.70;;;;;;;18.28;53.32;99335.59;5033108;28;20037;-88
2022/07/11 04:27:05;;;;;;;7.60;2.25;;;;;;;18.22;53.65;99321.81;5033665;28;20056;-88
2022/07/11 04:29:31;;;;;;;7.93;3.10;;;;;;;18.51;53.03;99343.88;5033077;28;20025;-87
2022/07/11 04:31:56;;;;;;;9.32;2.67;;;;;;;18.64;53.49;99358.53;5031010;28;20498;-88
2022/07/11 04:34:22;;;;;;;4.60;2.63;;;;;;;18.52;53.89;99354.00;5022254;28;20415;-87
2022/07/11 04:36:47;;;;;;;4.65;2.65;;;;;;;18.52;54.16;99354.81;5031831;28;20496;-93
2022/07/11 04:39:13;;;;;;;3.78;2.40;;;;;;;18.57;53.70;99352.81;5031327;28;20128;-92
2022/07/11 04:41:39;;;;;;;5.75;2.80;;;;;;;18.45;54.19;99322.78;5030712;28;20071;-92
2022/07/11 04:44:04;;;;;;;9.40;2.30;;;;;;;18.52;53.69;99325.69;5032019;28;20060;-93
2022/07/11 04:46:31;;;;;;;4.35;2.17;;;;;;;18.72;53.64;99362.25;5033027;28;20494;-92
2022/07/11 04:48:57;;;;;;;5.05;2.22;;;;;;;18.84;54.09;99366.78;5030890;28;20057;-92
2022/07/11 04:51:24;;;;;;;3.20;2.42;;;;;;;18.79;53.81;99354.63;5032442;28;20057;-93
2022/07/11 04:53:50;;;;;;;5.38;2.53;;;;;;;18.86;54.38;99342.50;5033472;28;20132;-94
2022/07/11 04:56:15;;;;;;;4.05;2.65;;;;;;;19.06;53.71;99362.09;5034135;28;20041;-93
2022/07/11 04:58:41;;;;;;;5.70;2.47;;;;;;;19.02;54.21;99345.06;5033998;28;20029;-93
2022/07/11 05:01:06;;;;;;;11.05;2.78;;;;;;;19.29;53.75;99367.50;5032591;28;20171;-94
2022/07/11 05:03:32;;;;;;;2.78;2.42;;;;;;;19.40;54.04;99361.06;5032610;28;20029;-93
2022/07/11 05:05:58;;;;;;;5.82;2.33;;;;;;;19.60;53.67;99370.84;5032954;28;20083;-93
2022/07/11 05:08:24;;;;;;;3.00;2.42;;;;;;;19.59;52.49;99360.72;5033194;28;20095;-93
2022/07/11 05:10:49;;;;;;;3.67;2.22;;;;;;;19.74;52.42;99372.13;5032202;28;20017;-93
2022/07/11 05:13:15;;;;;;;4.82;2.25;;;;;;;19.71;52.08;99339.69;5035753;28;20053;-94
2022/07/11 05:15:40;;;;;;;6.25;2.42;;;;;;;19.95;52.52;99348.72;5035961;28;20535;-92
2022/07/11 05:18:06;;;;;;;2.50;2.30;;;;;;;20.01;52.18;99352.75;5035774;28;20094;-94
2022/07/11 05:20:32;;;;;;;4.93;2.25;;;;;;;20.18;50.51;99368.19;5036265;28;20012;-93
2022/07/11 05:22:59;;;;;;;2.28;2.05;;;;;;;20.22;50.50;99362.53;5036204;28;20040;-93
2022/07/11 05:25:25;;;;;;;6.72;1.90;;;;;;;20.21;48.99;99358.06;5036477;28;20024;-94
2022/07/11 05:27:51;;;;;;;5.88;2.15;;;;;;;20.30;49.51;99361.34;5036376;28;20037;-94
2022/07/11 05:30:16;;;;;;;4.13;2.03;;;;;;;20.30;49.57;99346.31;5035949;28;20067;-94
2022/07/11 05:32:42;;;;;;;22.55;3.03;;;;;;;20.43;48.36;99355.25;5035450;28;20435;-93
2022/07/11 05:35:08;;;;;;;6.18;1.98;;;;;;;20.27;48.90;99327.25;5036059;28;20083;-94
2022/07/11 05:37:33;;;;;;;4.47;1.67;;;;;;;20.26;48.40;99314.28;5036482;28;20032;-93
2022/07/11 05:39:59;;;;;;;4.35;1.63;;;;;;;20.56;47.07;99365.00;5035078;28;20024;-93
2022/07/11 05:42:24;;;;;;;1.73;1.58;;;;;;;20.50;47.76;99346.72;5053832;28;20028;-93
2022/07/11 05:44:50;;;;;;;4.05;2.60;;;;;;;20.70;47.13;99358.50;5035769;28;20121;-93
2022/07/11 05:47:16;;;;;;;5.13;2.00;;;;;;;20.84;46.54;99357.69;5052603;28;20027;-94
2022/07/11 05:49:42;;;;;;;4.35;1.67;;;;;;;20.70;46.88;99323.56;5036150;28;20025;-95
2022/07/11 05:52:08;;;;;;;5.90;1.75;;;;;;;20.84;46.81;99329.25;5035863;28;20174;-94
2022/07/11 05:54:33;;;;;;;5.22;1.80;;;;;;;21.18;45.86;99362.88;5051774;28;20029;-92
2022/07/11 05:57:01;;;;;;;3.25;1.70;;;;;;;21.37;45.96;99360.81;5035478;28;20024;-95
2022/07/11 05:59:26;;;;;;;6.07;1.88;;;;;;;21.39;43.96;99364.06;5035639;28;20025;-95
2022/07/11 06:01:55;;;;;;;2.17;1.70;;;;;;;21.51;45.49;99376.22;5028209;28;20032;-93
2022/07/11 06:04:20;;;;;;;4.55;1.92;;;;;;;21.35;43.78;99346.16;5034614;28;20029;-93
2022/07/11 06:06:46;;;;;;;7.53;1.70;;;;;;;21.57;43.47;99369.66;5036179;28;20408;-94
2022/07/11 06:09:11;;;;;;;3.58;1.40;;;;;;;21.38;43.12;99353.06;5037002;28;20040;-93
2022/07/11 06:11:37;;;;;;;4.70;1.70;;;;;;;21.39;43.17;99344.13;5035153;28;20021;-94
2022/07/11 06:14:03;;;;;;;11.15;1.98;;;;;;;21.66;43.56;99389.16;5044434;28;20041;-94
2022/07/11 06:16:28;;;;;;;2.72;1.50;;;;;;;21.84;44.90;99393.94;5014423;28;20023;-93
2022/07/11 06:18:54;;;;;;;2.67;1.75;;;;;;;21.55;44.33;99334.31;5010008;28;20033;-92
2022/07/11 06:21:20;;;;;;;5.55;2.42;;;;;;;21.80;44.11;99370.41;5031489;28;20040;-92
2022/07/11 06:23:46;;;;;;;4.05;1.40;;;;;;;22.01;42.49;99386.53;5024009;28;20466;-90
2022/07/11 06:26:12;;;;;;;2.45;1.77;;;;;;;21.96;41.42;99402.06;5029214;28;20116;-92
2022/07/11 06:28:39;;;;;;;9.05;1.33;;;;;;;21.98;40.82;99411.00;5028078;28;20018;-92
2022/07/11 06:31:05;;;;;;;3.22;1.52;;;;;;;21.91;41.21;99374.00;5032679;28;20467;-93
2022/07/11 06:33:30;;;;;;;2.90;1.40;;;;;;;22.23;39.42;99392.13;5027761;28;20036;-93
2022/07/11 06:35:56;;;;;;;1.50;1.30;;;;;;;21.90;40.12;99352.47;5017452;28;20024;-87
2022/07/11 06:38:21;;;;;;;3.40;1.33;;;;;;;22.19;40.27;99397.81;5019373;28;20411;-85
2022/07/11 06:40:47;;;;;;;7.22;1.65;;;;;;;22.04;40.53;99362.97;5023188;28;20116;-86
2022/07/11 06:43:13;;;;;;;7.60;1.50;;;;;;;22.15;40.74;99402.75;5013525;28;20349;-86
2022/07/11 06:45:39;;;;;;;2.53;1.50;;;;;;;22.27;40.63;99388.00;5001467;28;20480;-85
2022/07/11 06:48:05;;;;;;;5.45;2.22;;;;;;;22.28;41.90;99400.22;5013635;28;20025;-88
2022/07/11 06:50:32;;;;;;;3.83;1.80;;;;;;;22.50;40.55;99394.38;5013293;28;20025;-87
2022/07/11 06:52:57;;;;;;;3.75;1.98;;;;;;;22.53;39.87;99399.28;5014164;28;20025;-86
2022/07/11 06:55:23;;;;;;;5.55;1.33;;;;;;;22.45;39.67;99395.63;5013939;28;20098;-87
2022/07/11 06:57:50;;;;;;;4.30;1.70;;;;;;;22.47;40.48;99396.03;5013303;28;20492;-86
2022/07/11 07:00:17;;;;;;;3.22;1.65;;;;;;;22.48;40.93;99391.13;5014159;28;20029;-86
2022/07/11 07:02:42;;;;;;;5.32;1.70;;;;;;;22.48;40.32;99394.81;5030236;28;20111;-87
2022/07/11 07:05:09;;;;;;;4.18;1.75;;;;;;;22.79;41.19;99406.38;5027898;28;20048;-87
2022/07/11 07:07:35;;;;;;;6.95;1.90;;;;;;;22.92;39.44;99394.44;5027860;28;20025;-86
2022/07/11 07:10:04;;;;;;;4.18;2.00;;;;;;;22.86;39.89;99406.31;5029214;28;20033;-86
2022/07/11 07:12:29;;;;;;;5.13;2.10;;;;;;;22.77;39.73;99388.88;5011062;28;20052;-87
2022/07/11 07:14:55;;;;;;;4.35;1.67;;;;;;;22.66;38.20;99362.50;5012482;28;20025;-87
2022/07/11 07:17:20;;;;;;;6.63;2.25;;;;;;;22.94;38.68;99394.84;5031203;28;20091;-87
2022/07/11 07:19:46;;;;;;;4.15;1.33;;;;;;;22.90;38.54;99403.44;5013550;28;20116;-87
2022/07/11 07:22:15;;;;;;;4.82;1.73;;;;;;;22.69;39.01;99371.03;5017956;28;20033;-85
2022/07/11 07:24:41;;;;;;;8.35;2.22;;;;;;;23.04;39.20;99405.31;5013744;28;20112;-90
2022/07/11 07:27:07;;;;;;;3.65;1.40;;;;;;;22.98;38.82;99381.34;5032168;28;20508;-93
2022/07/11 07:29:32;;;;;;;4.35;1.70;;;;;;;23.20;36.93;99379.09;5014819;28;20021;-94
2022/07/11 07:31:59;;;;;;;2.58;1.70;;;;;;;22.81;36.84;99346.91;5011022;28;20021;-94
2022/07/11 07:34:24;;;;;;;4.18;1.30;;;;;;;22.74;37.35;99335.56;5014003;28;20033;-92
2022/07/11 07:36:50;;;;;;;6.78;1.60;;;;;;;23.06;36.96;99345.84;5018095;28;20060;-93
2022/07/11 07:39:15;;;;;;;4.40;1.85;;;;;;;23.44;37.68;99396.38;5018710;28;20034;-92
2022/07/11 07:41:41;;;;;;;3.60;1.75;;;;;;;23.30;37.31;99385.97;5007584;28;20022;-94
2022/07/11 07:44:07;;;;;;;4.25;2.33;;;;;;;23.38;37.16;99401.75;5013851;28;20018;-92
2022/07/11 07:46:33;;;;;;;3.85;1.90;;;;;;;23.28;36.78;99388.41;5014684;28;20024;-93
2022/07/11 07:48:59;;;;;;;6.82;2.30;;;;;;;23.28;38.12;99399.81;5013633;28;20124;-92
2022/07/11 07:51:25;;;;;;;4.03;1.75;;;;;;;23.22;38.65;99398.63;5013603;28;20030;-93
2022/07/11 07:53:50;;;;;;;1.85;1.63;;;;;;;23.46;37.56;99396.75;5022506;28;20238;-92
2022/07/11 07:56:15;;;;;;;2.25;1.30;;;;;;;23.59;37.44;99381.94;5014793;28;20301;-92
2022/07/11 07:58:41;;;;;;;4.60;1.83;;;;;;;23.81;36.36;99383.28;5012960;28;20068;-93
2022/07/11 08:03:51;;;;;;;3.45;2.10;;;;;;;23.60;36.86;99400.69;5031178;28;20105;-94
2022/07/11 08:06:16;;;;;;;3.90;2.17;;;;;;;23.46;37.00;99385.34;5016046;28;20021;-94
2022/07/11 08:08:42;;;;;;;5.65;1.23;;;;;;;23.17;36.91;99371.38;5012665;28;20030;-93
2022/07/11 08:11:07;;;;;;;1.60;1.50;;;;;;;23.46;37.10;99402.47;5013666;28;20100;-93
2022/07/11 08:13:33;;;;;;;8.20;1.98;;;;;;;23.66;37.00;99396.94;5025856;28;20045;-93
2022/07/11 08:15:59;;;;;;;2.88;1.45;;;;;;;23.68;36.87;99343.09;5034276;28;20022;-94
2022/07/11 08:18:26;;;;;;;4.25;1.50;;;;;;;23.82;36.83;99375.53;5033888;28;20033;-93
2022/07/11 08:20:56;;;;;;;6.90;1.40;;;;;;;23.58;36.62;99380.31;5032054;28;20477;-93
2022/07/11 08:23:21;;;;;;;10.03;1.33;;;;;;;23.65;34.47;99363.09;5037424;28;20032;-91
2022/07/11 08:25:47;;;;;;;3.88;1.35;;;;;;;24.04;34.87;99380.97;5029629;28;20448;-93
2022/07/11 08:28:12;;;;;;;3.08;1.70;;;;;;;24.24;33.89;99373.31;5046908;28;20064;-95
2022/07/11 08:30:38;;;;;;;5.10;1.38;;;;;;;24.49;32.21;99374.97;5034508;28;20116;-95
2022/07/11 08:33:03;;;;;;;4.40;1.42;;;;;;;24.02;32.11;99332.03;5033825;28;20025;-94
2022/07/11 08:35:29;;;;;;;1.20;1.08;;;;;;;24.46;31.39;99358.69;5034171;28;20045;-93
2022/07/11 08:37:55;;;;;;;1.85;1.05;;;;;;;24.14;32.43;99357.16;5033917;28;20067;-93
2022/07/11 08:40:20;;;;;;;5.75;1.58;;;;;;;24.33;32.42;99367.06;5033658;28;20033;-95
2022/07/11 08:42:46;;;;;;;2.10;1.00;;;;;;;24.67;30.90;99356.72;5026121;28;20393;-94
2022/07/11 08:45:16;;;;;;;13.35;2.08;;;;;;;24.90;31.69;99355.13;5028831;28;20045;-93
2022/07/11 08:47:44;;;;;;;2.25;1.13;;;;;;;24.38;31.10;99345.78;5029141;28;20045;-92
2022/07/11 08:50:12;;;;;;;6.18;1.20;;;;;;;24.80;31.00;99356.94;5031555;28;20069;-92
2022/07/11 08:52:38;;;;;;;2.97;1.10;;;;;;;24.64;28.90;99363.31;5025448;28;20037;-92
2022/07/11 08:55:07;;;;;;;1.42;1.30;;;;;;;24.51;28.03;99354.53;5024693;28;20037;-93
2022/07/11 08:57:36;;;;;;;2.35;0.90;;;;;;;24.57;28.82;99344.22;5030703;28;20124;-91
2022/07/11 09:00:05;;;;;;;1.20;1.10;;;;;;;24.55;28.44;99349.56;5031404;28;20347;-90
2022/07/11 09:02:32;;;;;;;7.20;2.35;;;;;;;24.83;27.76;99356.06;5031366;28;20621;-91
2022/07/11 09:04:58;;;;;;;4.15;1.35;;;;;;;24.77;27.82;99352.06;5030664;28;20047;-90
2022/07/11 09:07:24;;;;;;;5.03;1.30;;;;;;;24.99;28.76;99343.09;5026256;28;20048;-91
2022/07/11 09:09:49;;;;;;;3.35;1.83;;;;;;;25.27;28.39;99352.38;5028883;28;20488;-91
2022/07/11 09:12:16;;;;;;;3.05;1.45;;;;;;;25.04;28.93;99363.44;5031353;28;20041;-90
2022/07/11 09:14:49;;;;;;;2.45;1.38;;;;;;;25.20;27.31;99362.72;5034942;28;20029;-91
2022/07/11 09:17:26;;;;;;;1.95;0.90;;;;;;;25.11;26.97;99328.16;5041345;28;20025;-91
2022/07/11 09:19:52;;;;;;;2.25;1.38;;;;;;;25.06;26.41;99360.13;5037802;28;20105;-91
2022/07/11 09:25:31;;;;;;;6.25;1.30;;;;;;;25.22;26.15;99356.56;5051398;28;20064;-90
2022/07/11 09:28:04;;;;;;;1.33;0.90;;;;;;;25.07;26.61;99351.09;5033567;28;20058;-91
2022/07/11 09:30:39;;;;;;;2.38;1.00;;;;;;;25.11;26.82;99355.97;5031264;28;20411;-91
2022/07/11 09:33:13;;;;;;;1.10;0.80;;;;;;;25.23;26.33;99346.75;5034778;28;20028;-92
2022/07/11 09:35:45;;;;;;;2.25;1.05;;;;;;;25.46;27.64;99365.06;5033502;28;20040;-91
2022/07/11 09:38:12;;;;;;;2.70;1.10;;;;;;;25.27;27.33;99358.09;5050470;28;20040;-92
2022/07/11 09:40:42;;;;;;;3.20;0.70;;;;;;;25.54;25.62;99368.66;5034429;28;20029;-90
2022/07/11 09:43:07;;;;;;;3.47;0.82;;;;;;;25.11;25.07;99310.97;5035194;28;20029;-92
2022/07/11 09:45:34;;;;;;;5.82;2.00;;;;;;;25.36;25.96;99361.19;5034007;28;20041;-92
2022/07/11 09:48:07;;;;;;;4.20;1.10;;;;;;;25.08;25.83;99326.97;5032968;28;20036;-93
2022/07/11 09:50:32;;;;;;;1.15;0.98;;;;;;;25.21;24.96;99307.09;5033831;28;20045;-92
2022/07/11 09:53:11;;;;;;;5.95;0.85;;;;;;;25.80;24.35;99358.25;5033079;28;20575;-94
2022/07/11 09:55:39;;;;;;;3.05;0.88;;;;;;;25.71;24.03;99352.34;5029069;28;20040;-93
2022/07/11 09:58:08;;;;;;;3.60;1.05;;;;;;;25.48;24.36;99346.22;5033863;28;20275;-93
2022/07/11 10:00:35;;;;;;;3.38;0.90;;;;;;;25.83;24.88;99350.84;5031756;28;20065;-94
2022/07/11 10:03:01;;;;;;;1.83;1.13;;;;;;;25.92;25.24;99357.56;5033067;28;20021;-92
2022/07/11 10:05:28;;;;;;;0.90;0.77;;;;;;;25.74;25.73;99357.16;5034793;28;20055;-94
2022/07/11 10:07:55;;;;;;;2.08;0.80;;;;;;;26.10;24.99;99346.94;5031094;28;20106;-94
2022/07/11 10:10:21;;;;;;;4.00;1.10;;;;;;;25.65;25.13;99329.94;5032350;28;20024;-94
2022/07/11 10:12:47;;;;;;;2.45;1.00;;;;;;;25.35;26.59;99328.91;5019378;28;20059;-92
2022/07/11 10:15:17;;;;;;;1.95;1.17;;;;;;;25.68;27.60;99322.53;5028020;28;20049;-91
2022/07/11 10:18:14;;;;;;;4.00;1.33;;;;;;;25.73;26.22;99318.34;5029921;28;20032;-95
2022/07/11 10:20:45;;;;;;;4.50;1.20;;;;;;;26.40;27.70;99347.91;5025474;28;20422;-94
2022/07/11 10:23:26;;;;;;;1.30;1.20;;;;;;;26.11;26.50;99357.16;5029428;28;20033;-93
2022/07/11 10:25:56;;;;;;;2.10;1.10;;;;;;;25.60;26.39;99330.47;5029689;28;20056;-94
2022/07/11 10:28:39;;;;;;;6.70;1.77;;;;;;;25.70;26.50;99310.59;5032702;28;20037;-94
2022/07/11 10:31:18;;;;;;;3.83;1.50;;;;;;;25.82;27.18;99329.97;5031021;28;20024;-95
2022/07/11 10:34:00;;;;;;;1.98;1.30;;;;;;;25.93;27.20;99333.38;5035624;28;20039;-94
2022/07/11 10:36:26;;;;;;;3.28;1.10;;;;;;;25.76;27.37;99332.56;5033323;28;20385;-93
2022/07/11 10:39:18;;;;;;;1.70;1.10;;;;;;;25.68;27.21;99348.28;5035792;28;20052;-92
2022/07/11 10:41:47;;;;;;;4.30;1.30;;;;;;;25.63;28.06;99340.19;5027685;28;20029;-93
2022/07/11 10:44:12;;;;;;;6.07;1.53;;;;;;;25.50;27.93;99329.44;5033989;28;20029;-93
2022/07/11 10:46:38;;;;;;;7.03;1.60;;;;;;;25.72;27.50;99343.28;5037448;28;20024;-94
2022/07/11 10:49:13;;;;;;;5.90;1.20;;;;;;;26.18;27.80;99340.63;5037832;28;20025;-94
2022/07/11 10:51:55;;;;;;;1.27;1.10;;;;;;;25.86;26.51;99329.88;5062692;28;20031;-92
2022/07/11 10:54:25;;;;;;;1.88;1.20;;;;;;;26.14;26.92;99336.22;5045654;28;20376;-95
2022/07/11 10:57:04;;;;;;;2.95;1.15;;;;;;;26.19;27.44;99342.25;5036160;28;20028;-93
2022/07/11 10:59:30;;;;;;;3.33;1.00;;;;;;;25.77;27.34;99337.06;5033624;28;20092;-94
2022/07/11 11:02:04;;;;;;;1.20;1.10;;;;;;;25.87;27.87;99337.22;5034064;28;20159;-96
2022/07/11 11:04:58;;;;;;;1.75;1.20;;;;;;;26.00;27.70;99331.63;5047341;28;20378;-93
2022/07/11 11:07:38;;;;;;;6.10;1.27;;;;;;;26.04;27.37;99324.56;5063682;28;20545;-93
2022/07/11 11:10:07;;;;;;;7.13;1.20;;;;;;;25.92;27.35;99334.66;5047918;28;20090;-94
2022/07/11 11:13:10;;;;;;;4.70;0.90;;;;;;;26.15;27.00;99329.25;5025963;28;20111;-94
2022/07/11 11:16:00;;;;;;;5.35;1.58;;;;;;;26.19;28.50;99327.94;5040888;28;20047;-92
2022/07/11 11:18:26;;;;;;;5.45;1.00;;;;;;;26.24;27.23;99328.66;5036208;28;20043;-95
2022/07/11 11:21:00;;;;;;;2.60;0.95;;;;;;;26.27;27.49;99331.44;5032468;28;20033;-93
2022/07/11 11:23:34;;;;;;;4.60;1.00;;;;;;;26.42;26.62;99333.94;5034680;28;20024;-93
2022/07/11 11:26:11;;;;;;;2.50;1.00;;;;;;;26.62;26.37;99310.88;5028843;28;20025;-93
2022/07/11 11:28:38;;;;;;;4.00;1.52;;;;;;;26.45;26.45;99336.72;5029020;28;20035;-92
2022/07/11 11:31:07;;;;;;;7.55;0.95;;;;;;;26.30;25.70;99329.69;5033986;28;20488;-94
2022/07/11 11:33:34;;;;;;;6.95;1.80;;;;;;;26.53;26.24;99342.25;5032944;28;20032;-92
2022/07/11 11:36:05;;;;;;;10.07;1.48;;;;;;;26.24;26.63;99334.38;5034056;28;20029;-91
2022/07/11 11:38:39;;;;;;;1.98;0.73;;;;;;;26.24;25.96;99348.69;5033929;28;20032;-91
2022/07/11 11:41:08;;;;;;;8.18;1.48;;;;;;;25.72;26.12;99336.75;5033300;28;20020;-93